sensor_id;sensor_type;location;lat;lon;timestamp;pressure;altitude;pressure_sealevel;temperature;humidity
2675;BME280;1347;42.122;24.746;2023-02-08T00:01:00;101358.53;;;-0.80;57.41
2675;BME280;1347;42.122;24.746;2023-02-08T00:03:31;101368.00;;;-0.78;57.45
2675;BME280;1347;42.122;24.746;2023-02-08T00:05:58;101360.41;;;-0.81;57.30
2675;BME280;1347;42.122;24.746;2023-02-08T00:08:25;101361.97;;;-0.85;57.62
2675;BME280;1347;42.122;24.746;2023-02-08T00:10:52;101373.22;;;-0.88;57.56
2675;BME280;1347;42.122;24.746;2023-02-08T00:13:19;101366.66;;;-0.97;57.92
2675;BME280;1347;42.122;24.746;2023-02-08T00:15:47;101374.72;;;-0.97;57.94
2675;BME280;1347;42.122;24.746;2023-02-08T00:18:14;101383.38;;;-0.95;58.04
2675;BME280;1347;42.122;24.746;2023-02-08T00:20:42;101379.72;;;-1.05;58.70
2675;BME280;1347;42.122;24.746;2023-02-08T00:23:09;101385.00;;;-1.11;58.85
2675;BME280;1347;42.122;24.746;2023-02-08T00:25:37;101385.75;;;-1.15;59.28
2675;BME280;1347;42.122;24.746;2023-02-08T00:28:05;101396.84;;;-1.12;59.19
2675;BME280;1347;42.122;24.746;2023-02-08T00:30:32;101399.84;;;-1.08;59.12
2675;BME280;1347;42.122;24.746;2023-02-08T00:33:01;101381.25;;;-1.09;59.23
2675;BME280;1347;42.122;24.746;2023-02-08T00:35:28;101396.34;;;-1.08;59.17
2675;BME280;1347;42.122;24.746;2023-02-08T00:37:55;101390.16;;;-1.09;59.08
2675;BME280;1347;42.122;24.746;2023-02-08T00:40:22;101401.97;;;-1.10;58.92
2675;BME280;1347;42.122;24.746;2023-02-08T00:42:49;101401.44;;;-1.12;59.24
2675;BME280;1347;42.122;24.746;2023-02-08T00:45:16;101400.09;;;-1.09;58.94
2675;BME280;1347;42.122;24.746;2023-02-08T00:47:43;101410.28;;;-1.12;58.86
2675;BME280;1347;42.122;24.746;2023-02-08T00:50:11;101407.59;;;-1.12;58.91
2675;BME280;1347;42.122;24.746;2023-02-08T00:52:38;101413.25;;;-1.13;59.14
2675;BME280;1347;42.122;24.746;2023-02-08T00:55:06;101420.25;;;-1.12;59.35
2675;BME280;1347;42.122;24.746;2023-02-08T00:57:33;101415.44;;;-1.10;59.15
2675;BME280;1347;42.122;24.746;2023-02-08T01:00:00;101409.41;;;-1.17;59.30
2675;BME280;1347;42.122;24.746;2023-02-08T01:02:27;101414.22;;;-1.19;59.29
2675;BME280;1347;42.122;24.746;2023-02-08T01:04:54;101415.03;;;-1.19;59.23
2675;BME280;1347;42.122;24.746;2023-02-08T01:07:23;101408.34;;;-1.16;59.28
2675;BME280;1347;42.122;24.746;2023-02-08T01:09:50;101401.28;;;-1.22;59.33
2675;BME280;1347;42.122;24.746;2023-02-08T01:12:16;101403.53;;;-1.31;59.39
2675;BME280;1347;42.122;24.746;2023-02-08T01:14:43;101404.34;;;-1.30;59.40
2675;BME280;1347;42.122;24.746;2023-02-08T01:17:10;101404.09;;;-1.29;59.28
2675;BME280;1347;42.122;24.746;2023-02-08T01:19:37;101398.97;;;-1.30;59.08
2675;BME280;1347;42.122;24.746;2023-02-08T01:22:04;101406.97;;;-1.35;59.43
2675;BME280;1347;42.122;24.746;2023-02-08T01:24:32;101412.34;;;-1.35;59.55
2675;BME280;1347;42.122;24.746;2023-02-08T01:26:59;101408.03;;;-1.36;59.47
2675;BME280;1347;42.122;24.746;2023-02-08T01:29:26;101413.63;;;-1.38;59.63
2675;BME280;1347;42.122;24.746;2023-02-08T01:31:53;101406.88;;;-1.40;59.55
2675;BME280;1347;42.122;24.746;2023-02-08T01:34:20;101413.00;;;-1.45;59.77
2675;BME280;1347;42.122;24.746;2023-02-08T01:36:47;101400.38;;;-1.44;60.02
2675;BME280;1347;42.122;24.746;2023-02-08T01:39:14;101402.72;;;-1.48;60.06
2675;BME280;1347;42.122;24.746;2023-02-08T01:41:43;101403.59;;;-1.59;60.48
2675;BME280;1347;42.122;24.746;2023-02-08T01:47:14;101418.59;;;-1.63;60.41
2675;BME280;1347;42.122;24.746;2023-02-08T01:49:41;101416.69;;;-1.63;60.37
2675;BME280;1347;42.122;24.746;2023-02-08T01:52:11;101417.19;;;-1.66;60.47
2675;BME280;1347;42.122;24.746;2023-02-08T01:54:45;101417.91;;;-1.70;60.61
2675;BME280;1347;42.122;24.746;2023-02-08T01:57:15;101413.22;;;-1.63;60.72
2675;BME280;1347;42.122;24.746;2023-02-08T01:59:46;101428.78;;;-1.65;60.69
2675;BME280;1347;42.122;24.746;2023-02-08T02:02:16;101427.22;;;-1.61;60.46
2675;BME280;1347;42.122;24.746;2023-02-08T02:04:46;101422.06;;;-1.63;60.55
2675;BME280;1347;42.122;24.746;2023-02-08T02:07:14;101429.00;;;-1.67;60.66
2675;BME280;1347;42.122;24.746;2023-02-08T02:09:46;101426.09;;;-1.65;60.70
2675;BME280;1347;42.122;24.746;2023-02-08T02:12:17;101433.34;;;-1.66;60.64
2675;BME280;1347;42.122;24.746;2023-02-08T02:14:46;101426.56;;;-1.68;60.66
2675;BME280;1347;42.122;24.746;2023-02-08T02:17:14;101424.09;;;-1.70;60.57
2675;BME280;1347;42.122;24.746;2023-02-08T02:19:49;101421.19;;;-1.68;60.38
2675;BME280;1347;42.122;24.746;2023-02-08T02:22:43;101434.03;;;-1.70;60.51
2675;BME280;1347;42.122;24.746;2023-02-08T02:28:46;101435.34;;;-1.73;60.66
2675;BME280;1347;42.122;24.746;2023-02-08T02:31:45;101440.25;;;-1.70;60.67
2675;BME280;1347;42.122;24.746;2023-02-08T02:34:19;101434.53;;;-1.73;60.76
2675;BME280;1347;42.122;24.746;2023-02-08T02:36:52;101445.78;;;-1.76;60.86
2675;BME280;1347;42.122;24.746;2023-02-08T02:39:33;101439.22;;;-1.80;60.71
2675;BME280;1347;42.122;24.746;2023-02-08T02:42:09;101442.66;;;-1.85;60.97
2675;BME280;1347;42.122;24.746;2023-02-08T02:45:03;101441.59;;;-1.84;61.09
2675;BME280;1347;42.122;24.746;2023-02-08T02:47:38;101445.69;;;-1.93;61.19
2675;BME280;1347;42.122;24.746;2023-02-08T02:50:13;101456.22;;;-1.92;61.13
2675;BME280;1347;42.122;24.746;2023-02-08T02:52:47;101454.03;;;-1.95;61.25
2675;BME280;1347;42.122;24.746;2023-02-08T02:55:21;101453.53;;;-1.92;61.25
2675;BME280;1347;42.122;24.746;2023-02-08T02:57:50;101462.91;;;-1.94;61.43
2675;BME280;1347;42.122;24.746;2023-02-08T03:00:22;101470.38;;;-1.96;61.27
2675;BME280;1347;42.122;24.746;2023-02-08T03:02:51;101475.53;;;-1.95;61.35
2675;BME280;1347;42.122;24.746;2023-02-08T03:05:20;101477.63;;;-1.97;61.30
2675;BME280;1347;42.122;24.746;2023-02-08T03:08:00;101476.81;;;-1.97;61.37
2675;BME280;1347;42.122;24.746;2023-02-08T03:10:59;101478.34;;;-2.01;61.19
2675;BME280;1347;42.122;24.746;2023-02-08T03:13:43;101484.19;;;-2.04;61.47
2675;BME280;1347;42.122;24.746;2023-02-08T03:16:18;101480.44;;;-2.03;61.86
2675;BME280;1347;42.122;24.746;2023-02-08T03:18:59;101487.44;;;-2.02;62.04
2675;BME280;1347;42.122;24.746;2023-02-08T03:21:37;101494.94;;;-2.04;61.92
2675;BME280;1347;42.122;24.746;2023-02-08T03:24:17;101494.38;;;-2.06;62.10
2675;BME280;1347;42.122;24.746;2023-02-08T03:26:52;101494.81;;;-2.09;62.11
2675;BME280;1347;42.122;24.746;2023-02-08T03:29:27;101488.28;;;-2.13;62.10
2675;BME280;1347;42.122;24.746;2023-02-08T03:32:05;101487.59;;;-2.20;62.52
2675;BME280;1347;42.122;24.746;2023-02-08T03:34:42;101490.53;;;-2.22;62.79
2675;BME280;1347;42.122;24.746;2023-02-08T03:37:14;101493.94;;;-2.27;62.87
2675;BME280;1347;42.122;24.746;2023-02-08T03:39:44;101498.72;;;-2.29;62.73
2675;BME280;1347;42.122;24.746;2023-02-08T03:42:16;101501.41;;;-2.29;62.96
2675;BME280;1347;42.122;24.746;2023-02-08T03:44:47;101502.00;;;-2.27;62.69
2675;BME280;1347;42.122;24.746;2023-02-08T03:47:19;101500.00;;;-2.31;62.58
2675;BME280;1347;42.122;24.746;2023-02-08T03:49:50;101505.97;;;-2.29;62.75
2675;BME280;1347;42.122;24.746;2023-02-08T03:52:20;101512.16;;;-2.29;62.77
2675;BME280;1347;42.122;24.746;2023-02-08T03:54:52;101516.81;;;-2.24;62.57
2675;BME280;1347;42.122;24.746;2023-02-08T03:57:21;101509.31;;;-2.22;62.44
2675;BME280;1347;42.122;24.746;2023-02-08T03:59:54;101508.63;;;-2.17;61.93
2675;BME280;1347;42.122;24.746;2023-02-08T04:02:24;101514.09;;;-2.12;61.88
2675;BME280;1347;42.122;24.746;2023-02-08T04:04:55;101522.16;;;-2.12;61.93
2675;BME280;1347;42.122;24.746;2023-02-08T04:07:24;101521.22;;;-2.06;61.57
2675;BME280;1347;42.122;24.746;2023-02-08T04:09:50;101520.06;;;-2.10;61.88
2675;BME280;1347;42.122;24.746;2023-02-08T04:12:18;101526.72;;;-2.13;61.97
2675;BME280;1347;42.122;24.746;2023-02-08T04:14:44;101519.00;;;-2.09;61.87
2675;BME280;1347;42.122;24.746;2023-02-08T04:17:11;101525.66;;;-2.12;62.12
2675;BME280;1347;42.122;24.746;2023-02-08T04:19:38;101522.75;;;-2.10;61.66
2675;BME280;1347;42.122;24.746;2023-02-08T04:22:06;101519.47;;;-2.12;61.68
2675;BME280;1347;42.122;24.746;2023-02-08T04:24:33;101522.97;;;-2.12;61.65
2675;BME280;1347;42.122;24.746;2023-02-08T04:27:00;101526.16;;;-2.15;61.53
2675;BME280;1347;42.122;24.746;2023-02-08T04:29:27;101525.56;;;-2.17;61.60
2675;BME280;1347;42.122;24.746;2023-02-08T04:31:54;101530.81;;;-2.22;61.29
2675;BME280;1347;42.122;24.746;2023-02-08T04:34:21;101541.09;;;-2.19;61.33
2675;BME280;1347;42.122;24.746;2023-02-08T04:36:48;101541.22;;;-2.14;61.38
2675;BME280;1347;42.122;24.746;2023-02-08T04:39:16;101538.41;;;-2.19;61.78
2675;BME280;1347;42.122;24.746;2023-02-08T04:41:43;101542.50;;;-2.28;61.84
2675;BME280;1347;42.122;24.746;2023-02-08T04:44:09;101546.94;;;-2.22;61.95
2675;BME280;1347;42.122;24.746;2023-02-08T04:46:36;101554.31;;;-2.29;62.22
2675;BME280;1347;42.122;24.746;2023-02-08T04:49:03;101553.47;;;-2.30;62.79
2675;BME280;1347;42.122;24.746;2023-02-08T04:51:30;101557.00;;;-2.29;62.50
2675;BME280;1347;42.122;24.746;2023-02-08T04:53:57;101562.00;;;-2.33;62.65
2675;BME280;1347;42.122;24.746;2023-02-08T04:56:25;101566.00;;;-2.35;63.03
2675;BME280;1347;42.122;24.746;2023-02-08T04:58:52;101569.72;;;-2.36;62.40
2675;BME280;1347;42.122;24.746;2023-02-08T05:01:19;101575.91;;;-2.36;62.41
2675;BME280;1347;42.122;24.746;2023-02-08T05:03:46;101575.19;;;-2.31;61.81
2675;BME280;1347;42.122;24.746;2023-02-08T05:06:13;101583.84;;;-2.29;61.85
2675;BME280;1347;42.122;24.746;2023-02-08T05:08:40;101574.97;;;-2.30;61.61
2675;BME280;1347;42.122;24.746;2023-02-08T05:11:07;101566.78;;;-2.23;61.55
2675;BME280;1347;42.122;24.746;2023-02-08T05:13:35;101582.44;;;-2.20;61.50
2675;BME280;1347;42.122;24.746;2023-02-08T05:16:02;101581.63;;;-2.20;61.22
2675;BME280;1347;42.122;24.746;2023-02-08T05:18:29;101585.50;;;-2.16;61.27
2675;BME280;1347;42.122;24.746;2023-02-08T05:20:57;101592.72;;;-2.17;61.01
2675;BME280;1347;42.122;24.746;2023-02-08T05:23:24;101591.19;;;-2.13;60.64
2675;BME280;1347;42.122;24.746;2023-02-08T05:25:51;101598.44;;;-2.13;60.93
2675;BME280;1347;42.122;24.746;2023-02-08T05:28:18;101593.66;;;-2.11;60.73
2675;BME280;1347;42.122;24.746;2023-02-08T05:30:47;101596.91;;;-2.09;60.61
2675;BME280;1347;42.122;24.746;2023-02-08T05:33:14;101596.91;;;-2.09;60.65
2675;BME280;1347;42.122;24.746;2023-02-08T05:35:40;101593.41;;;-2.10;60.76
2675;BME280;1347;42.122;24.746;2023-02-08T05:38:07;101599.84;;;-2.11;60.78
2675;BME280;1347;42.122;24.746;2023-02-08T05:40:34;101595.28;;;-2.10;60.54
2675;BME280;1347;42.122;24.746;2023-02-08T05:43:01;101608.50;;;-2.09;60.74
2675;BME280;1347;42.122;24.746;2023-02-08T05:45:28;101593.28;;;-2.03;60.63
2675;BME280;1347;42.122;24.746;2023-02-08T05:47:56;101601.84;;;-2.06;60.58
2675;BME280;1347;42.122;24.746;2023-02-08T05:50:23;101611.31;;;-2.04;60.69
2675;BME280;1347;42.122;24.746;2023-02-08T05:52:50;101604.38;;;-2.00;60.35
2675;BME280;1347;42.122;24.746;2023-02-08T05:55:17;101606.84;;;-1.98;60.54
2675;BME280;1347;42.122;24.746;2023-02-08T05:57:44;101616.91;;;-1.94;60.27
2675;BME280;1347;42.122;24.746;2023-02-08T06:00:12;101619.47;;;-1.87;59.95
2675;BME280;1347;42.122;24.746;2023-02-08T06:02:39;101628.66;;;-1.83;59.84
2675;BME280;1347;42.122;24.746;2023-02-08T06:05:07;101635.00;;;-1.77;59.78
2675;BME280;1347;42.122;24.746;2023-02-08T06:07:34;101624.00;;;-1.76;59.96
2675;BME280;1347;42.122;24.746;2023-02-08T06:10:02;101632.97;;;-1.70;59.34
2675;BME280;1347;42.122;24.746;2023-02-08T06:12:28;101635.44;;;-1.69;59.42
2675;BME280;1347;42.122;24.746;2023-02-08T06:14:55;101644.69;;;-1.65;59.31
2675;BME280;1347;42.122;24.746;2023-02-08T06:17:22;101651.09;;;-1.54;59.23
2675;BME280;1347;42.122;24.746;2023-02-08T06:19:49;101654.09;;;-1.51;58.83
2675;BME280;1347;42.122;24.746;2023-02-08T06:22:17;101634.59;;;-1.46;58.78
2675;BME280;1347;42.122;24.746;2023-02-08T06:24:44;101651.78;;;-1.47;58.88
2675;BME280;1347;42.122;24.746;2023-02-08T06:27:13;101650.09;;;-1.36;58.60
2675;BME280;1347;42.122;24.746;2023-02-08T06:29:40;101655.34;;;-1.30;58.41
2675;BME280;1347;42.122;24.746;2023-02-08T06:32:06;101650.19;;;-1.31;58.48
2675;BME280;1347;42.122;24.746;2023-02-08T06:34:33;101650.53;;;-1.28;58.37
2675;BME280;1347;42.122;24.746;2023-02-08T06:37:00;101651.22;;;-1.21;58.05
2675;BME280;1347;42.122;24.746;2023-02-08T06:39:31;101654.25;;;-1.17;57.96
2675;BME280;1347;42.122;24.746;2023-02-08T06:41:58;101653.63;;;-1.07;57.90
2675;BME280;1347;42.122;24.746;2023-02-08T06:44:25;101664.50;;;-1.02;57.88
2675;BME280;1347;42.122;24.746;2023-02-08T06:46:52;101661.44;;;-0.94;57.70
2675;BME280;1347;42.122;24.746;2023-02-08T06:49:19;101663.06;;;-0.93;57.00
2675;BME280;1347;42.122;24.746;2023-02-08T06:51:46;101659.88;;;-0.90;57.19
2675;BME280;1347;42.122;24.746;2023-02-08T06:54:12;101661.09;;;-0.98;57.18
2675;BME280;1347;42.122;24.746;2023-02-08T06:56:42;101665.59;;;-0.87;57.27
2675;BME280;1347;42.122;24.746;2023-02-08T06:59:09;101664.63;;;-0.81;56.91
2675;BME280;1347;42.122;24.746;2023-02-08T07:01:36;101659.16;;;-0.86;56.56
2675;BME280;1347;42.122;24.746;2023-02-08T07:04:03;101663.34;;;-0.78;56.86
2675;BME280;1347;42.122;24.746;2023-02-08T07:06:30;101670.94;;;-0.75;56.49
2675;BME280;1347;42.122;24.746;2023-02-08T07:08:57;101669.31;;;-0.76;56.44
2675;BME280;1347;42.122;24.746;2023-02-08T07:11:24;101675.09;;;-0.67;56.44
2675;BME280;1347;42.122;24.746;2023-02-08T07:13:52;101675.22;;;-0.62;56.06
2675;BME280;1347;42.122;24.746;2023-02-08T07:16:20;101684.94;;;-0.61;56.23
2675;BME280;1347;42.122;24.746;2023-02-08T07:18:47;101685.13;;;-0.51;56.16
2675;BME280;1347;42.122;24.746;2023-02-08T07:21:14;101689.03;;;-0.42;55.66
2675;BME280;1347;42.122;24.746;2023-02-08T07:23:41;101694.75;;;-0.39;55.77
2675;BME280;1347;42.122;24.746;2023-02-08T07:26:10;101694.25;;;-0.35;55.14
2675;BME280;1347;42.122;24.746;2023-02-08T07:28:39;101704.69;;;-0.39;55.14
2675;BME280;1347;42.122;24.746;2023-02-08T07:31:08;101700.31;;;-0.28;55.30
2675;BME280;1347;42.122;24.746;2023-02-08T07:33:36;101701.63;;;-0.14;55.29
2675;BME280;1347;42.122;24.746;2023-02-08T07:36:03;101702.59;;;-0.04;54.69
2675;BME280;1347;42.122;24.746;2023-02-08T07:38:30;101701.84;;;0.01;54.49
2675;BME280;1347;42.122;24.746;2023-02-08T07:41:01;101712.56;;;-0.04;54.51
2675;BME280;1347;42.122;24.746;2023-02-08T07:43:28;101712.16;;;0.04;54.32
2675;BME280;1347;42.122;24.746;2023-02-08T07:45:55;101720.06;;;0.11;54.40
2675;BME280;1347;42.122;24.746;2023-02-08T07:48:24;101709.19;;;0.22;54.35
2675;BME280;1347;42.122;24.746;2023-02-08T07:50:51;101714.44;;;0.29;54.45
2675;BME280;1347;42.122;24.746;2023-02-08T07:53:17;101710.81;;;0.40;54.32
2675;BME280;1347;42.122;24.746;2023-02-08T07:55:45;101719.31;;;0.49;54.00
2675;BME280;1347;42.122;24.746;2023-02-08T07:58:13;101717.81;;;0.58;53.83
2675;BME280;1347;42.122;24.746;2023-02-08T08:00:39;101710.59;;;0.63;53.04
2675;BME280;1347;42.122;24.746;2023-02-08T08:03:07;101711.97;;;0.66;52.71
2675;BME280;1347;42.122;24.746;2023-02-08T08:05:35;101718.00;;;0.73;52.41
2675;BME280;1347;42.122;24.746;2023-02-08T08:08:03;101728.63;;;0.80;52.37
2675;BME280;1347;42.122;24.746;2023-02-08T08:10:30;101721.09;;;1.03;52.00
2675;BME280;1347;42.122;24.746;2023-02-08T08:12:56;101716.44;;;1.74;51.06
2675;BME280;1347;42.122;24.746;2023-02-08T08:15:23;101723.13;;;4.31;47.11
2675;BME280;1347;42.122;24.746;2023-02-08T08:17:50;101723.50;;;6.79;42.09
2675;BME280;1347;42.122;24.746;2023-02-08T08:20:17;101726.81;;;8.86;38.02
2675;BME280;1347;42.122;24.746;2023-02-08T08:22:46;101723.97;;;10.13;35.31
2675;BME280;1347;42.122;24.746;2023-02-08T08:25:13;101725.63;;;11.24;33.56
2675;BME280;1347;42.122;24.746;2023-02-08T08:27:40;101731.00;;;11.46;32.97
2675;BME280;1347;42.122;24.746;2023-02-08T08:30:09;101732.97;;;13.99;30.43
2675;BME280;1347;42.122;24.746;2023-02-08T08:32:36;101723.53;;;16.35;28.19
2675;BME280;1347;42.122;24.746;2023-02-08T08:35:04;101739.50;;;16.85;27.32
2675;BME280;1347;42.122;24.746;2023-02-08T08:37:32;101741.34;;;17.13;26.73
2675;BME280;1347;42.122;24.746;2023-02-08T08:40:01;101736.50;;;16.19;26.67
2675;BME280;1347;42.122;24.746;2023-02-08T08:42:28;101745.06;;;17.20;26.39
2675;BME280;1347;42.122;24.746;2023-02-08T08:44:55;101745.19;;;19.27;24.89
2675;BME280;1347;42.122;24.746;2023-02-08T08:47:21;101746.31;;;21.38;23.08
2675;BME280;1347;42.122;24.746;2023-02-08T08:49:48;101744.63;;;21.22;22.45
2675;BME280;1347;42.122;24.746;2023-02-08T08:52:15;101745.00;;;20.73;22.66
2675;BME280;1347;42.122;24.746;2023-02-08T08:54:42;101740.25;;;21.21;22.27
2675;BME280;1347;42.122;24.746;2023-02-08T08:57:11;101743.59;;;23.59;21.81
2675;BME280;1347;42.122;24.746;2023-02-08T08:59:38;101746.81;;;22.55;21.59
2675;BME280;1347;42.122;24.746;2023-02-08T09:02:05;101743.94;;;22.16;21.51
2675;BME280;1347;42.122;24.746;2023-02-08T09:04:32;101737.13;;;22.06;21.19
2675;BME280;1347;42.122;24.746;2023-02-08T09:06:59;101748.28;;;22.02;21.74
2675;BME280;1347;42.122;24.746;2023-02-08T09:09:26;101750.00;;;22.46;21.24
2675;BME280;1347;42.122;24.746;2023-02-08T09:11:53;101749.66;;;22.76;20.82
2675;BME280;1347;42.122;24.746;2023-02-08T09:14:21;101753.59;;;21.53;21.32
2675;BME280;1347;42.122;24.746;2023-02-08T09:16:48;101754.69;;;20.12;21.68
2675;BME280;1347;42.122;24.746;2023-02-08T09:19:15;101759.78;;;20.07;21.71
2675;BME280;1347;42.122;24.746;2023-02-08T09:21:42;101762.91;;;18.70;22.76
2675;BME280;1347;42.122;24.746;2023-02-08T09:24:09;101757.97;;;17.28;24.01
2675;BME280;1347;42.122;24.746;2023-02-08T09:26:37;101751.19;;;17.45;23.54
2675;BME280;1347;42.122;24.746;2023-02-08T09:29:04;101755.38;;;17.71;23.39
2675;BME280;1347;42.122;24.746;2023-02-08T09:31:34;101759.53;;;17.80;23.36
2675;BME280;1347;42.122;24.746;2023-02-08T09:34:03;101758.72;;;16.07;24.15
2675;BME280;1347;42.122;24.746;2023-02-08T09:36:33;101750.25;;;13.88;26.25
2675;BME280;1347;42.122;24.746;2023-02-08T09:39:04;101747.44;;;13.55;26.42
2675;BME280;1347;42.122;24.746;2023-02-08T09:41:52;101746.88;;;14.69;26.66
2675;BME280;1347;42.122;24.746;2023-02-08T09:44:24;101745.56;;;15.76;24.81
2675;BME280;1347;42.122;24.746;2023-02-08T09:47:02;101746.78;;;15.91;24.14
2675;BME280;1347;42.122;24.746;2023-02-08T09:49:35;101744.97;;;15.82;24.88
2675;BME280;1347;42.122;24.746;2023-02-08T09:52:07;101741.81;;;16.24;24.25
2675;BME280;1347;42.122;24.746;2023-02-08T09:54:39;101739.56;;;17.05;23.76
2675;BME280;1347;42.122;24.746;2023-02-08T09:57:11;101743.13;;;18.52;23.13
2675;BME280;1347;42.122;24.746;2023-02-08T09:59:50;101745.28;;;18.20;22.89
2675;BME280;1347;42.122;24.746;2023-02-08T10:02:23;101741.31;;;18.41;22.73
2675;BME280;1347;42.122;24.746;2023-02-08T10:04:57;101733.63;;;18.99;22.67
2675;BME280;1347;42.122;24.746;2023-02-08T10:07:26;101729.97;;;17.88;23.22
2675;BME280;1347;42.122;24.746;2023-02-08T10:09:56;101724.56;;;16.74;23.37
2675;BME280;1347;42.122;24.746;2023-02-08T10:12:34;101719.66;;;16.99;23.98
2675;BME280;1347;42.122;24.746;2023-02-08T10:15:17;101717.75;;;18.12;23.08
2675;BME280;1347;42.122;24.746;2023-02-08T10:18:01;101720.88;;;18.29;22.83
2675;BME280;1347;42.122;24.746;2023-02-08T10:20:44;101717.00;;;19.02;22.57
2675;BME280;1347;42.122;24.746;2023-02-08T10:23:22;101710.22;;;18.77;22.77
2675;BME280;1347;42.122;24.746;2023-02-08T10:26:10;101719.34;;;19.83;21.79
2675;BME280;1347;42.122;24.746;2023-02-08T10:28:54;101724.59;;;20.62;20.92
2675;BME280;1347;42.122;24.746;2023-02-08T10:31:35;101721.75;;;18.14;22.28
2675;BME280;1347;42.122;24.746;2023-02-08T10:34:12;101711.97;;;15.37;24.10
2675;BME280;1347;42.122;24.746;2023-02-08T10:36:45;101715.75;;;13.19;26.10
2675;BME280;1347;42.122;24.746;2023-02-08T10:39:14;101700.63;;;11.94;27.16
2675;BME280;1347;42.122;24.746;2023-02-08T10:41:42;101702.13;;;11.00;28.09
2675;BME280;1347;42.122;24.746;2023-02-08T10:44:18;101705.41;;;10.63;28.83
2675;BME280;1347;42.122;24.746;2023-02-08T10:46:50;101705.09;;;10.33;29.42
2675;BME280;1347;42.122;24.746;2023-02-08T10:49:29;101705.59;;;10.13;29.77
2675;BME280;1347;42.122;24.746;2023-02-08T10:52:00;101700.88;;;9.83;29.85
2675;BME280;1347;42.122;24.746;2023-02-08T10:54:33;101700.19;;;9.77;29.82
2675;BME280;1347;42.122;24.746;2023-02-08T10:57:01;101701.00;;;8.92;31.00
2675;BME280;1347;42.122;24.746;2023-02-08T10:59:32;101708.59;;;8.81;31.04
2675;BME280;1347;42.122;24.746;2023-02-08T11:02:01;101709.09;;;8.70;31.27
2675;BME280;1347;42.122;24.746;2023-02-08T11:04:29;101708.69;;;8.49;31.73
2675;BME280;1347;42.122;24.746;2023-02-08T11:06:56;101708.47;;;8.86;31.61
2675;BME280;1347;42.122;24.746;2023-02-08T11:09:25;101705.16;;;9.03;31.51
2675;BME280;1347;42.122;24.746;2023-02-08T11:11:53;101698.44;;;9.23;31.15
2675;BME280;1347;42.122;24.746;2023-02-08T11:14:24;101697.28;;;9.38;31.08
2675;BME280;1347;42.122;24.746;2023-02-08T11:16:52;101690.19;;;9.95;30.67
2675;BME280;1347;42.122;24.746;2023-02-08T11:19:22;101686.91;;;10.38;30.05
2675;BME280;1347;42.122;24.746;2023-02-08T11:21:54;101687.97;;;10.28;29.58
2675;BME280;1347;42.122;24.746;2023-02-08T11:24:31;101685.91;;;8.81;30.93
2675;BME280;1347;42.122;24.746;2023-02-08T11:27:01;101682.06;;;8.41;31.01
2675;BME280;1347;42.122;24.746;2023-02-08T11:29:29;101690.47;;;8.26;31.62
2675;BME280;1347;42.122;24.746;2023-02-08T11:32:02;101684.84;;;7.90;32.05
2675;BME280;1347;42.122;24.746;2023-02-08T11:34:30;101689.75;;;7.36;32.50
2675;BME280;1347;42.122;24.746;2023-02-08T11:37:01;101685.34;;;7.92;32.84
2675;BME280;1347;42.122;24.746;2023-02-08T11:39:33;101687.28;;;9.06;30.97
2675;BME280;1347;42.122;24.746;2023-02-08T11:42:03;101684.59;;;10.31;29.96
2675;BME280;1347;42.122;24.746;2023-02-08T11:44:31;101683.00;;;11.18;29.12
2675;BME280;1347;42.122;24.746;2023-02-08T11:47:01;101669.78;;;10.72;29.06
2675;BME280;1347;42.122;24.746;2023-02-08T11:49:36;101674.63;;;9.23;30.13
2675;BME280;1347;42.122;24.746;2023-02-08T11:52:07;101674.78;;;8.64;31.74
2675;BME280;1347;42.122;24.746;2023-02-08T11:54:45;101673.47;;;8.61;31.55
2675;BME280;1347;42.122;24.746;2023-02-08T11:57:14;101676.63;;;9.18;31.10
2675;BME280;1347;42.122;24.746;2023-02-08T11:59:45;101683.78;;;9.41;31.08
2675;BME280;1347;42.122;24.746;2023-02-08T12:02:39;101682.75;;;9.51;30.83
2675;BME280;1347;42.122;24.746;2023-02-08T12:05:10;101677.50;;;8.50;31.20
2675;BME280;1347;42.122;24.746;2023-02-08T12:07:59;101675.22;;;7.22;32.83
2675;BME280;1347;42.122;24.746;2023-02-08T12:10:55;101670.09;;;6.97;33.56
2675;BME280;1347;42.122;24.746;2023-02-08T12:13:40;101668.50;;;7.15;33.37
2675;BME280;1347;42.122;24.746;2023-02-08T12:16:25;101670.41;;;8.03;32.92
2675;BME280;1347;42.122;24.746;2023-02-08T12:22:05;101673.34;;;7.74;32.10
2675;BME280;1347;42.122;24.746;2023-02-08T12:24:41;101676.19;;;7.31;32.96
2675;BME280;1347;42.122;24.746;2023-02-08T12:27:21;101676.34;;;7.21;32.92
2675;BME280;1347;42.122;24.746;2023-02-08T12:29:56;101680.59;;;7.09;33.53
2675;BME280;1347;42.122;24.746;2023-02-08T12:32:56;101669.91;;;7.31;33.06
2675;BME280;1347;42.122;24.746;2023-02-08T12:35:56;101674.28;;;7.32;32.83
2675;BME280;1347;42.122;24.746;2023-02-08T12:38:42;101676.47;;;7.11;32.85
2675;BME280;1347;42.122;24.746;2023-02-08T12:41:37;101673.56;;;7.02;33.09
2675;BME280;1347;42.122;24.746;2023-02-08T12:44:16;101672.50;;;7.22;33.33
2675;BME280;1347;42.122;24.746;2023-02-08T12:46:58;101674.94;;;7.61;32.82
2675;BME280;1347;42.122;24.746;2023-02-08T12:49:45;101667.53;;;7.24;33.38
2675;BME280;1347;42.122;24.746;2023-02-08T12:52:27;101667.91;;;6.99;33.43
2675;BME280;1347;42.122;24.746;2023-02-08T12:54:59;101663.72;;;6.11;34.16
2675;BME280;1347;42.122;24.746;2023-02-08T12:57:29;101657.63;;;5.90;34.63
2675;BME280;1347;42.122;24.746;2023-02-08T13:00:01;101667.22;;;5.44;35.30
2675;BME280;1347;42.122;24.746;2023-02-08T13:02:31;101664.56;;;5.34;35.62
2675;BME280;1347;42.122;24.746;2023-02-08T13:05:03;101667.47;;;5.08;35.72
2675;BME280;1347;42.122;24.746;2023-02-08T13:07:34;101665.53;;;5.09;36.48
2675;BME280;1347;42.122;24.746;2023-02-08T13:10:07;101667.09;;;4.61;36.42
2675;BME280;1347;42.122;24.746;2023-02-08T13:12:43;101672.03;;;4.54;36.91
2675;BME280;1347;42.122;24.746;2023-02-08T13:15:16;101662.78;;;4.50;37.05
2675;BME280;1347;42.122;24.746;2023-02-08T13:17:50;101670.19;;;4.29;37.36
2675;BME280;1347;42.122;24.746;2023-02-08T13:20:35;101672.63;;;4.20;37.46
2675;BME280;1347;42.122;24.746;2023-02-08T13:23:12;101675.38;;;3.90;37.71
2675;BME280;1347;42.122;24.746;2023-02-08T13:25:41;101670.50;;;4.07;37.80
2675;BME280;1347;42.122;24.746;2023-02-08T13:28:17;101669.66;;;4.22;37.73
2675;BME280;1347;42.122;24.746;2023-02-08T13:30:45;101678.88;;;4.36;37.68